createdAt,value
2019-03-08T00:00:56.437Z,98564.31
2019-03-08T00:06:02.384Z,98569.38
2019-03-08T00:11:08.281Z,98598.77
2019-03-08T00:16:14.291Z,98587.77
2019-03-08T00:21:20.347Z,98588.47
2019-03-08T00:26:26.857Z,98589.55
2019-03-08T00:31:32.940Z,98595.81
2019-03-08T00:36:39.019Z,98594.28
2019-03-08T00:41:45.033Z,98600.97
2019-03-08T00:46:51.948Z,98620.42
2019-03-08T00:51:58.162Z,98627.95
2019-03-08T00:57:04.887Z,98629.81
2019-03-08T01:02:11.679Z,98627.33
2019-03-08T01:07:17.691Z,98649.85
2019-03-08T01:12:24.037Z,98655.42
2019-03-08T01:17:30.463Z,98673.14
2019-03-08T01:22:36.755Z,98671.44
2019-03-08T01:28:08.779Z,98668.02
2019-03-08T01:33:15.519Z,98665.95
2019-03-08T01:38:21.773Z,98674.93
2019-03-08T01:43:27.868Z,98676.36
2019-03-08T01:48:33.940Z,98683.53
2019-03-08T01:53:39.891Z,98682.63
2019-03-08T01:58:45.299Z,98686.97
2019-03-08T02:03:51.376Z,98692.25
2019-03-08T02:08:57.300Z,98683.14
2019-03-08T02:14:03.304Z,98687.25
2019-03-08T02:19:09.542Z,98681.16
2019-03-08T02:24:15.774Z,98681.91
2019-03-08T02:29:22.299Z,98676.61
2019-03-08T02:34:28.379Z,98683.37
2019-03-08T02:39:34.853Z,98693.33
2019-03-08T02:44:41.152Z,98683.34
2019-03-08T02:49:47.170Z,98690.11
2019-03-08T02:54:53.897Z,98681.53
2019-03-08T03:00:00.299Z,98688.88
2019-03-08T03:05:05.653Z,98694.59
2019-03-08T03:10:11.829Z,98698.43
2019-03-08T03:15:18.335Z,98701.73
2019-03-08T03:20:24.510Z,98702.45
2019-03-08T03:25:31.400Z,98698.63
2019-03-08T03:30:37.742Z,98702.16
2019-03-08T03:35:43.837Z,98689.31
2019-03-08T03:40:50.491Z,98698.75
2019-03-08T03:45:55.632Z,98709.73
2019-03-08T03:51:02.282Z,98716.62
2019-03-08T03:56:08.183Z,98713.70
2019-03-08T04:01:28.296Z,98710.83
2019-03-08T04:06:34.512Z,98715.05
2019-03-08T04:11:40.828Z,98716.83
2019-03-08T04:16:47.521Z,98715.22
2019-03-08T04:21:53.775Z,98724.92
2019-03-08T04:26:59.836Z,98724.06
2019-03-08T04:32:05.883Z,98723.71
2019-03-08T04:37:12.341Z,98721.79
2019-03-08T04:42:18.616Z,98719.89
2019-03-08T04:47:25.434Z,98722.77
2019-03-08T04:52:31.759Z,98713.87
2019-03-08T04:57:38.679Z,98715.05
2019-03-08T05:02:45.215Z,98716.48
2019-03-08T05:07:51.354Z,98712.86
2019-03-08T05:12:57.520Z,98709.59
2019-03-08T05:18:03.732Z,98692.17
2019-03-08T05:23:09.670Z,98705.89
2019-03-08T05:28:15.962Z,98720.41
2019-03-08T05:33:22.235Z,98711.42
2019-03-08T05:38:27.417Z,98707.75
2019-03-08T05:43:33.406Z,98708.13
2019-03-08T05:48:39.338Z,98702.58
2019-03-08T05:53:45.589Z,98717.20
2019-03-08T05:58:51.889Z,98722.78
2019-03-08T06:03:58.022Z,98719.80
2019-03-08T06:09:05.835Z,98714.05
2019-03-08T06:14:10.658Z,98715.84
2019-03-08T06:19:17.290Z,98707.91
2019-03-08T06:24:23.312Z,98701.74
2019-03-08T06:29:29.321Z,98724.44
2019-03-08T06:34:35.560Z,98729.67
2019-03-08T06:39:41.813Z,98728.92
2019-03-08T06:44:48.372Z,98749.68
2019-03-08T06:49:54.394Z,98737.92
2019-03-08T06:55:00.770Z,98735.13
2019-03-08T07:00:30.499Z,98741.89
2019-03-08T07:05:36.770Z,98744.88
2019-03-08T07:10:42.943Z,98747.45
2019-03-08T07:15:48.883Z,98748.34
2019-03-08T07:21:03.273Z,98735.70
2019-03-08T07:26:27.083Z,98736.33
2019-03-08T07:32:04.490Z,98737.96
2019-03-08T07:37:29.663Z,98735.19
2019-03-08T07:42:53.663Z,98744.48
2019-03-08T07:48:22.018Z,98737.63
2019-03-08T07:54:05.578Z,98748.92
2019-03-08T07:59:26.277Z,98754.51
2019-03-08T08:04:50.340Z,98757.30
2019-03-08T08:10:21.447Z,98765.11
2019-03-08T08:15:39.005Z,98766.75
2019-03-08T08:21:03.307Z,98776.48
2019-03-08T08:26:46.732Z,98773.68
2019-03-08T08:32:17.883Z,98775.39
2019-03-08T08:37:52.246Z,98769.87
2019-03-08T08:43:22.840Z,98772.32
2019-03-08T08:48:50.673Z,98766.89
2019-03-08T08:54:18.248Z,98769.52
2019-03-08T08:59:49.407Z,98767.67
2019-03-08T09:05:26.520Z,98768.23
2019-03-08T09:10:57.321Z,98767.83
2019-03-08T09:16:22.107Z,98765.70
2019-03-08T09:21:53.394Z,98751.52
2019-03-08T09:27:14.768Z,98749.82
2019-03-08T09:32:39.632Z,98755.66
2019-03-08T09:37:59.866Z,98750.32
2019-03-08T09:43:22.726Z,98749.37
2019-03-08T09:48:48.849Z,98753.70
2019-03-08T09:54:28.329Z,98753.94
2019-03-08T10:00:02.598Z,98752.09
2019-03-08T10:05:19.092Z,98741.31
2019-03-08T10:10:36.457Z,98759.08
2019-03-08T10:16:10.527Z,98755.78
2019-03-08T10:21:53.589Z,98776.94
2019-03-08T10:27:18.470Z,98776.34
2019-03-08T10:32:42.190Z,98796.76
2019-03-08T10:37:58.725Z,98785.39
2019-03-08T10:43:10.075Z,98787.68
2019-03-08T10:48:25.869Z,98779.88
2019-03-08T10:53:40.185Z,98768.55
2019-03-08T10:59:01.689Z,98757.09
2019-03-08T11:04:25.599Z,98755.79
2019-03-08T11:09:38.586Z,98740.97
2019-03-08T11:15:02.868Z,98745.41
2019-03-08T11:20:28.871Z,98738.09
2019-03-08T11:25:52.236Z,98741.28
2019-03-08T11:31:12.793Z,98735.27
2019-03-08T11:36:38.107Z,98744.80
2019-03-08T11:42:09.196Z,98750.06
2019-03-08T11:47:39.993Z,98731.83
2019-03-08T11:53:10.998Z,98743.06
2019-03-08T11:58:38.919Z,98755.78
2019-03-08T12:04:02.934Z,98741.50
2019-03-08T12:09:51.859Z,98726.59
2019-03-08T12:15:20.101Z,98741.73
2019-03-08T12:20:44.887Z,98733.03
2019-03-08T12:26:20.326Z,98742.75
2019-03-08T12:31:45.406Z,98729.97
2019-03-08T12:37:10.817Z,98750.50
2019-03-08T12:42:39.037Z,98738.95
2019-03-08T12:48:13.910Z,98735.33
2019-03-08T12:53:51.022Z,98763.70
2019-03-08T12:59:06.513Z,98742.48
2019-03-08T13:04:46.529Z,98755.98
2019-03-08T13:09:53.938Z,98741.95
2019-03-08T13:15:02.375Z,98750.08
2019-03-08T13:20:13.693Z,98760.23
2019-03-08T13:25:19.815Z,98753.34
2019-03-08T13:30:25.954Z,98791.89
2019-03-08T13:35:32.709Z,98798.45
2019-03-08T13:40:39.021Z,98792.99
2019-03-08T13:45:45.655Z,98823.95
2019-03-08T13:50:50.947Z,98823.11
2019-03-08T13:55:57.054Z,98820.72
2019-03-08T14:01:03.701Z,98819.61
2019-03-08T14:06:10.335Z,98839.76
2019-03-08T14:11:16.678Z,98831.69
2019-03-08T14:16:22.849Z,98831.78
2019-03-08T14:21:29.493Z,98826.15
2019-03-08T14:26:36.075Z,98842.77
2019-03-08T14:31:55.732Z,98830.14
2019-03-08T14:37:01.870Z,98852.95
2019-03-08T14:42:19.941Z,98843.64
2019-03-08T14:47:33.342Z,98829.54
2019-03-08T14:52:40.765Z,98855.29
2019-03-08T14:57:47.474Z,98855.38
2019-03-08T15:02:54.033Z,98865.20
2019-03-08T15:08:00.523Z,98869.50
2019-03-08T15:13:07.006Z,98863.93
2019-03-08T15:18:14.738Z,98861.30
2019-03-08T15:23:20.985Z,98880.55
2019-03-08T15:28:27.006Z,98882.48
2019-03-08T15:33:33.590Z,98880.67
2019-03-08T15:38:39.660Z,98890.10
2019-03-08T15:43:47.043Z,98892.10
2019-03-08T15:48:54.831Z,98888.69
2019-03-08T15:54:43.246Z,98882.80
2019-03-08T15:59:49.210Z,98900.57
2019-03-08T16:04:55.819Z,98905.34
2019-03-08T16:10:02.235Z,98908.02
2019-03-08T16:15:08.916Z,98929.08
2019-03-08T16:20:16.593Z,98955.54
2019-03-08T16:25:23.001Z,98954.56
2019-03-08T16:30:33.932Z,98960.75
2019-03-08T16:35:49.484Z,98981.38
2019-03-08T16:41:25.599Z,98994.95
2019-03-08T16:46:50.560Z,98991.22
2019-03-08T16:52:18.730Z,98966.97
2019-03-08T16:57:31.565Z,98973.84
2019-03-08T17:02:59.053Z,98984.99
2019-03-08T17:08:27.278Z,98982.20
2019-03-08T17:13:52.313Z,98992.48
2019-03-08T17:19:23.766Z,98994.44
2019-03-08T17:24:47.822Z,99003.32
2019-03-08T17:30:05.065Z,99010.14
2019-03-08T17:35:36.400Z,99021.08
2019-03-08T17:41:01.550Z,99026.80
2019-03-08T17:48:27.583Z,99045.86
2019-03-08T18:08:57.821Z,99042.83
2019-03-08T18:14:25.162Z,99043.73
2019-03-08T18:42:16.842Z,99106.03
2019-03-08T18:47:40.356Z,99107.70
2019-03-08T18:53:19.974Z,99111.59
2019-03-08T19:00:10.255Z,99120.17
2019-03-08T19:48:33.545Z,99183.34
2019-03-08T19:54:04.416Z,99178.03
2019-03-08T19:59:32.478Z,99184.17
2019-03-08T20:02:44.087Z,99190.33
2019-03-08T20:03:38.198Z,99185.20
2019-03-08T20:04:38.020Z,99191.94
2019-03-08T20:05:18.163Z,99197.08
2019-03-08T20:06:00.343Z,99200.38
2019-03-08T20:06:52.942Z,99199.81
2019-03-08T20:07:52.025Z,99197.39
2019-03-08T20:08:56.627Z,99196.94
2019-03-08T20:10:07.780Z,99198.20
2019-03-08T20:10:58.845Z,99198.42
2019-03-08T20:12:00.239Z,99197.69
2019-03-08T20:12:42.372Z,99196.20
2019-03-08T20:13:26.587Z,99195.33
2019-03-08T20:14:13.505Z,99200.92
2019-03-08T20:15:06.090Z,99199.52
2019-03-08T20:16:01.325Z,99202.00
2019-03-08T20:16:53.825Z,99207.67
2019-03-08T20:17:46.234Z,99213.55
2019-03-08T20:18:37.081Z,99207.52
2019-03-08T20:19:15.829Z,99209.11
2019-03-08T20:20:20.820Z,99213.80
2019-03-08T20:21:25.419Z,99212.12
2019-03-08T20:22:17.954Z,99207.03
2019-03-08T20:22:56.475Z,99211.73
2019-03-08T20:23:47.529Z,99217.23
2019-03-08T20:24:46.431Z,99221.02
2019-03-08T20:25:51.174Z,99215.22
2019-03-08T20:29:06.790Z,99189.88
2019-03-08T20:29:59.093Z,99191.49
2019-03-08T20:30:57.719Z,99192.39
2019-03-08T20:31:53.682Z,99181.09
2019-03-08T20:32:51.582Z,99190.83
2019-03-08T20:33:42.645Z,99186.80
2019-03-08T20:34:24.819Z,99193.95
2019-03-08T20:35:17.205Z,99195.47
2019-03-08T20:36:15.668Z,99201.83
2019-03-08T20:37:11.201Z,99204.64
2019-03-08T20:38:15.715Z,99206.91
2019-03-08T20:39:06.324Z,99210.28
2019-03-08T20:39:45.624Z,99205.80
2019-03-08T20:40:40.874Z,99211.81
2019-03-08T20:41:42.340Z,99210.36
2019-03-08T20:42:38.172Z,99216.36
2019-03-08T20:43:24.710Z,99215.64
2019-03-08T20:44:02.155Z,99218.17
2019-03-08T20:44:47.597Z,99215.59
2019-03-08T20:46:03.361Z,99213.62
2019-03-08T20:46:43.303Z,99214.41
2019-03-08T20:47:20.545Z,99219.91
2019-03-08T20:47:53.774Z,99212.32
2019-03-08T20:48:26.847Z,99218.96
2019-03-08T20:49:00.253Z,99218.41
2019-03-08T20:49:33.321Z,99220.75
2019-03-08T20:50:09.036Z,99222.27
2019-03-08T20:50:42.302Z,99222.45
2019-03-08T20:51:15.381Z,99221.02
2019-03-08T20:51:49.157Z,99214.23
2019-03-08T20:52:22.085Z,99222.46
2019-03-08T20:52:55.233Z,99220.50
2019-03-08T20:53:28.526Z,99231.42
2019-03-08T20:59:11.709Z,99245.15
2019-03-08T20:59:44.620Z,99240.33
2019-03-08T21:00:18.226Z,99241.06
2019-03-08T21:00:51.463Z,99242.17
2019-03-08T21:02:59.108Z,99258.52
2019-03-08T21:03:32.169Z,99262.40
2019-03-08T21:04:05.401Z,99265.75
2019-03-08T21:04:38.371Z,99274.03
2019-03-08T21:05:11.981Z,99271.15
2019-03-08T21:05:44.965Z,99274.11
2019-03-08T21:06:18.391Z,99264.76
2019-03-08T21:06:51.547Z,99276.44
2019-03-08T21:07:24.896Z,99276.54
2019-03-08T21:07:58.100Z,99278.46
2019-03-08T21:08:31.180Z,99272.19
2019-03-08T21:09:07.834Z,99274.53
2019-03-08T21:09:41.397Z,99275.89
2019-03-08T21:12:31.444Z,99284.08
2019-03-08T21:13:05.063Z,99290.23
2019-03-08T21:13:38.208Z,99285.79
2019-03-08T21:14:11.155Z,99283.68
2019-03-08T21:14:44.187Z,99283.48
2019-03-08T21:15:25.089Z,99288.05
2019-03-08T21:15:52.041Z,99283.48
2019-03-08T21:16:25.080Z,99285.37
2019-03-08T21:16:58.407Z,99292.89
2019-03-08T21:17:31.371Z,99282.33
2019-03-08T21:18:04.431Z,99287.91
2019-03-08T21:23:43.569Z,99287.91
2019-03-08T21:28:46.817Z,99303.91
2019-03-08T21:33:49.848Z,99294.61
2019-03-08T21:38:52.967Z,99311.59
2019-03-08T21:43:55.911Z,99325.39
2019-03-08T21:48:58.882Z,99329.27
2019-03-08T21:54:01.915Z,99336.78
2019-03-08T21:59:05.005Z,99337.08
2019-03-08T22:04:46.115Z,99341.81
2019-03-08T22:10:03.960Z,99351.86
2019-03-08T22:15:07.357Z,99349.30
2019-03-08T22:20:10.702Z,99358.36
2019-03-08T22:25:13.776Z,99368.91
2019-03-08T22:30:17.292Z,99376.20
2019-03-08T22:35:20.569Z,99380.49
2019-03-08T22:40:23.677Z,99394.88
2019-03-08T22:45:26.820Z,99399.98
2019-03-08T22:50:30.179Z,99406.37
2019-03-08T22:55:33.184Z,99419.27
2019-03-08T23:00:59.221Z,99426.67
2019-03-08T23:06:02.425Z,99421.16
2019-03-08T23:11:06.024Z,99431.41
2019-03-08T23:16:09.224Z,99437.50
2019-03-08T23:21:12.556Z,99434.06
2019-03-08T23:26:15.705Z,99429.51
2019-03-08T23:31:26.314Z,99444.54
2019-03-08T23:36:29.566Z,99447.26
2019-03-08T23:41:32.758Z,99445.53
2019-03-08T23:46:35.988Z,99453.95
2019-03-08T23:51:39.035Z,99451.62
2019-03-08T23:56:42.544Z,99462.66
